Mirny, Russia
Current Conditions -  °F | °C
As of 9:00 PM on Thursday 29 Jan 2015 (Local Time) from URKK Reporting Station
Broken Clouds Broken Clouds  
Wind Chill: 39°   Ceiling: 6000
Heat Index: 45°   Visibility: 6mi
Dew Point: 41°   Wind: 11mph
Humidity: 87%   Direction: 180°S
Pressure: 29.85"   Gusts: 18mph
Location:  45.55°N, 38.91°E
Report Text: URKK 291800Z 18005G08MPS 9999 SCT030CB BKN060 07/05 Q1011 NOSIGRMK QFE755 SC060
Loading
Personal Weather Stations






























Interactive Weather Map New forecast layout! Learn more

10-Day Weather Forecast

Advertisements
Track Severe Weather on mobile